<?xml version="1.0" encoding="UTF-8"?>
<gpx xmlns="http://www.topografix.com/GPX/1/1" xmlns:gpsies="http://www.gpsies.com/GPX/1/0" creator="GPSies http://www.gpsies.com - GPSies Track" version="1.1" xmlns:xsi="http://www.w3.org/2001/XMLSchema-instance" xsi:schemaLocation="http://www.topografix.com/GPX/1/1 http://www.topografix.com/GPX/1/1/gpx.xsd http://www.gpsies.com/GPX/1/0 http://www.gpsies.com/gpsies.xsd">
  <metadata>
    <name>GPSies Track</name>
    <link href="http://www.gpsies.com/">
      <text>GPSies Track on GPSies.com</text>
    </link>
    <time>2016-08-02T22:13:00Z</time>
  </metadata>
  <trk>
    <name>GPSies Track on GPSies.com</name>
    <trkseg>
      <trkpt lat="50.58752320" lon="6.360629081">
        <ele>298.00000</ele>
        <time>2010-01-01T00:00:00Z</time>
      </trkpt>
      <trkpt lat="50.58747000" lon="6.360580000">
        <ele>299.00000</ele>
        <time>2010-01-01T00:00:02Z</time>
      </trkpt>
      <trkpt lat="50.58766000" lon="6.360090000">
        <ele>301.00000</ele>
        <time>2010-01-01T00:00:17Z</time>
      </trkpt>
      <trkpt lat="50.58775000" lon="6.359940000">
        <ele>302.00000</ele>
        <time>2010-01-01T00:00:22Z</time>
      </trkpt>
      <trkpt lat="50.58787000" lon="6.359820000">
        <ele>303.00000</ele>
        <time>2010-01-01T00:00:27Z</time>
      </trkpt>
      <trkpt lat="50.58827000" lon="6.359530000">
        <ele>302.00000</ele>
        <time>2010-01-01T00:00:45Z</time>
      </trkpt>
      <trkpt lat="50.58834000" lon="6.359430000">
        <ele>302.00000</ele>
        <time>2010-01-01T00:00:49Z</time>
      </trkpt>
      <trkpt lat="50.58839000" lon="6.359290000">
        <ele>303.00000</ele>
        <time>2010-01-01T00:00:53Z</time>
      </trkpt>
      <trkpt lat="50.58848000" lon="6.358700000">
        <ele>310.00000</ele>
        <time>2010-01-01T00:01:08Z</time>
      </trkpt>
      <trkpt lat="50.58848000" lon="6.358440000">
        <ele>313.00000</ele>
        <time>2010-01-01T00:01:15Z</time>
      </trkpt>
      <trkpt lat="50.58845000" lon="6.358050000">
        <ele>317.00000</ele>
        <time>2010-01-01T00:01:25Z</time>
      </trkpt>
      <trkpt lat="50.58837000" lon="6.357660000">
        <ele>321.00000</ele>
        <time>2010-01-01T00:01:35Z</time>
      </trkpt>
      <trkpt lat="50.58827000" lon="6.357350000">
        <ele>324.00000</ele>
        <time>2010-01-01T00:01:44Z</time>
      </trkpt>
      <trkpt lat="50.58780000" lon="6.356260000">
        <ele>331.00000</ele>
        <time>2010-01-01T00:02:18Z</time>
      </trkpt>
      <trkpt lat="50.58771000" lon="6.356090000">
        <ele>332.00000</ele>
        <time>2010-01-01T00:02:23Z</time>
      </trkpt>
      <trkpt lat="50.58753000" lon="6.355870000">
        <ele>335.00000</ele>
        <time>2010-01-01T00:02:32Z</time>
      </trkpt>
      <trkpt lat="50.58726000" lon="6.355690000">
        <ele>339.00000</ele>
        <time>2010-01-01T00:02:44Z</time>
      </trkpt>
      <trkpt lat="50.58697000" lon="6.355560000">
        <ele>343.00000</ele>
        <time>2010-01-01T00:02:56Z</time>
      </trkpt>
      <trkpt lat="50.58643000" lon="6.355450000">
        <ele>348.00000</ele>
        <time>2010-01-01T00:03:18Z</time>
      </trkpt>
      <trkpt lat="50.58633000" lon="6.355510000">
        <ele>351.00000</ele>
        <time>2010-01-01T00:03:22Z</time>
      </trkpt>
      <trkpt lat="50.58614000" lon="6.355750000">
        <ele>353.00000</ele>
        <time>2010-01-01T00:03:32Z</time>
      </trkpt>
      <trkpt lat="50.58602000" lon="6.355860000">
        <ele>352.00000</ele>
        <time>2010-01-01T00:03:38Z</time>
      </trkpt>
      <trkpt lat="50.58588000" lon="6.355950000">
        <ele>351.00000</ele>
        <time>2010-01-01T00:03:44Z</time>
      </trkpt>
      <trkpt lat="50.58583000" lon="6.355820000">
        <ele>353.00000</ele>
        <time>2010-01-01T00:03:48Z</time>
      </trkpt>
      <trkpt lat="50.58573000" lon="6.355760000">
        <ele>354.00000</ele>
        <time>2010-01-01T00:03:52Z</time>
      </trkpt>
      <trkpt lat="50.58532000" lon="6.355680000">
        <ele>355.00000</ele>
        <time>2010-01-01T00:04:08Z</time>
      </trkpt>
      <trkpt lat="50.58447000" lon="6.355570000">
        <ele>360.00000</ele>
        <time>2010-01-01T00:04:43Z</time>
      </trkpt>
      <trkpt lat="50.58435000" lon="6.355480000">
        <ele>360.00000</ele>
        <time>2010-01-01T00:04:48Z</time>
      </trkpt>
      <trkpt lat="50.58413000" lon="6.355260000">
        <ele>361.00000</ele>
        <time>2010-01-01T00:04:58Z</time>
      </trkpt>
      <trkpt lat="50.58409000" lon="6.355290000">
        <ele>361.00000</ele>
        <time>2010-01-01T00:05:00Z</time>
      </trkpt>
      <trkpt lat="50.58382000" lon="6.355170000">
        <ele>362.00000</ele>
        <time>2010-01-01T00:05:11Z</time>
      </trkpt>
      <trkpt lat="50.58380000" lon="6.355100000">
        <ele>363.00000</ele>
        <time>2010-01-01T00:05:13Z</time>
      </trkpt>
      <trkpt lat="50.58347000" lon="6.354850000">
        <ele>363.00000</ele>
        <time>2010-01-01T00:05:28Z</time>
      </trkpt>
      <trkpt lat="50.58316000" lon="6.354670000">
        <ele>363.00000</ele>
        <time>2010-01-01T00:05:41Z</time>
      </trkpt>
      <trkpt lat="50.58295000" lon="6.354520000">
        <ele>365.00000</ele>
        <time>2010-01-01T00:05:50Z</time>
      </trkpt>
      <trkpt lat="50.58263000" lon="6.354160000">
        <ele>367.00000</ele>
        <time>2010-01-01T00:06:06Z</time>
      </trkpt>
      <trkpt lat="50.58246000" lon="6.353930000">
        <ele>369.00000</ele>
        <time>2010-01-01T00:06:15Z</time>
      </trkpt>
      <trkpt lat="50.58208000" lon="6.353490000">
        <ele>369.00000</ele>
        <time>2010-01-01T00:06:34Z</time>
      </trkpt>
      <trkpt lat="50.58170000" lon="6.352900000">
        <ele>370.00000</ele>
        <time>2010-01-01T00:06:55Z</time>
      </trkpt>
      <trkpt lat="50.58161000" lon="6.352890000">
        <ele>371.00000</ele>
        <time>2010-01-01T00:06:59Z</time>
      </trkpt>
      <trkpt lat="50.58160000" lon="6.352890000">
        <ele>371.00000</ele>
        <time>2010-01-01T00:06:59Z</time>
      </trkpt>
      <trkpt lat="50.58130000" lon="6.352860000">
        <ele>373.00000</ele>
        <time>2010-01-01T00:07:11Z</time>
      </trkpt>
      <trkpt lat="50.58123000" lon="6.352820000">
        <ele>374.00000</ele>
        <time>2010-01-01T00:07:14Z</time>
      </trkpt>
      <trkpt lat="50.58122000" lon="6.352820000">
        <ele>374.00000</ele>
        <time>2010-01-01T00:07:15Z</time>
      </trkpt>
      <trkpt lat="50.58083000" lon="6.352340000">
        <ele>381.00000</ele>
        <time>2010-01-01T00:07:35Z</time>
      </trkpt>
      <trkpt lat="50.58063000" lon="6.352190000">
        <ele>383.00000</ele>
        <time>2010-01-01T00:07:43Z</time>
      </trkpt>
      <trkpt lat="50.58058000" lon="6.352200000">
        <ele>384.00000</ele>
        <time>2010-01-01T00:07:45Z</time>
      </trkpt>
      <trkpt lat="50.58049000" lon="6.352260000">
        <ele>385.00000</ele>
        <time>2010-01-01T00:07:49Z</time>
      </trkpt>
      <trkpt lat="50.58021000" lon="6.352590000">
        <ele>388.00000</ele>
        <time>2010-01-01T00:08:03Z</time>
      </trkpt>
      <trkpt lat="50.58014000" lon="6.352640000">
        <ele>389.00000</ele>
        <time>2010-01-01T00:08:06Z</time>
      </trkpt>
      <trkpt lat="50.58005000" lon="6.352630000">
        <ele>390.00000</ele>
        <time>2010-01-01T00:08:10Z</time>
      </trkpt>
      <trkpt lat="50.57992000" lon="6.352450000">
        <ele>394.00000</ele>
        <time>2010-01-01T00:08:17Z</time>
      </trkpt>
      <trkpt lat="50.57983000" lon="6.352560000">
        <ele>395.00000</ele>
        <time>2010-01-01T00:08:22Z</time>
      </trkpt>
      <trkpt lat="50.57976000" lon="6.352820000">
        <ele>395.00000</ele>
        <time>2010-01-01T00:08:29Z</time>
      </trkpt>
      <trkpt lat="50.57958000" lon="6.353570000">
        <ele>401.00000</ele>
        <time>2010-01-01T00:08:49Z</time>
      </trkpt>
      <trkpt lat="50.57943000" lon="6.354600000">
        <ele>401.00000</ele>
        <time>2010-01-01T00:09:16Z</time>
      </trkpt>
      <trkpt lat="50.57934000" lon="6.355030000">
        <ele>400.00000</ele>
        <time>2010-01-01T00:09:27Z</time>
      </trkpt>
      <trkpt lat="50.57930000" lon="6.355140000">
        <ele>400.00000</ele>
        <time>2010-01-01T00:09:31Z</time>
      </trkpt>
      <trkpt lat="50.57925000" lon="6.355190000">
        <ele>401.00000</ele>
        <time>2010-01-01T00:09:33Z</time>
      </trkpt>
      <trkpt lat="50.57915000" lon="6.355280000">
        <ele>403.00000</ele>
        <time>2010-01-01T00:09:38Z</time>
      </trkpt>
      <trkpt lat="50.57901000" lon="6.355310000">
        <ele>403.00000</ele>
        <time>2010-01-01T00:09:43Z</time>
      </trkpt>
      <trkpt lat="50.57796000" lon="6.354880000">
        <ele>410.00000</ele>
        <time>2010-01-01T00:10:27Z</time>
      </trkpt>
      <trkpt lat="50.57793000" lon="6.354850000">
        <ele>411.00000</ele>
        <time>2010-01-01T00:10:28Z</time>
      </trkpt>
      <trkpt lat="50.57793000" lon="6.354840000">
        <ele>412.00000</ele>
        <time>2010-01-01T00:10:28Z</time>
      </trkpt>
      <trkpt lat="50.57789000" lon="6.354780000">
        <ele>413.00000</ele>
        <time>2010-01-01T00:10:31Z</time>
      </trkpt>
      <trkpt lat="50.57758000" lon="6.354570000">
        <ele>425.00000</ele>
        <time>2010-01-01T00:10:44Z</time>
      </trkpt>
      <trkpt lat="50.57734000" lon="6.354450000">
        <ele>432.00000</ele>
        <time>2010-01-01T00:10:54Z</time>
      </trkpt>
      <trkpt lat="50.57705000" lon="6.354380000">
        <ele>435.00000</ele>
        <time>2010-01-01T00:11:06Z</time>
      </trkpt>
      <trkpt lat="50.57681000" lon="6.354480000">
        <ele>437.00000</ele>
        <time>2010-01-01T00:11:16Z</time>
      </trkpt>
      <trkpt lat="50.57651000" lon="6.354770000">
        <ele>438.00000</ele>
        <time>2010-01-01T00:11:30Z</time>
      </trkpt>
      <trkpt lat="50.57647000" lon="6.354790000">
        <ele>439.00000</ele>
        <time>2010-01-01T00:11:32Z</time>
      </trkpt>
      <trkpt lat="50.57640000" lon="6.354850000">
        <ele>439.00000</ele>
        <time>2010-01-01T00:11:35Z</time>
      </trkpt>
      <trkpt lat="50.57634000" lon="6.354850000">
        <ele>439.00000</ele>
        <time>2010-01-01T00:11:37Z</time>
      </trkpt>
      <trkpt lat="50.57626000" lon="6.354900000">
        <ele>440.00000</ele>
        <time>2010-01-01T00:11:41Z</time>
      </trkpt>
      <trkpt lat="50.57613000" lon="6.354850000">
        <ele>441.00000</ele>
        <time>2010-01-01T00:11:46Z</time>
      </trkpt>
      <trkpt lat="50.57600000" lon="6.354750000">
        <ele>442.00000</ele>
        <time>2010-01-01T00:11:52Z</time>
      </trkpt>
      <trkpt lat="50.57489000" lon="6.353720000">
        <ele>460.00000</ele>
        <time>2010-01-01T00:12:43Z</time>
      </trkpt>
      <trkpt lat="50.57472000" lon="6.353580000">
        <ele>463.00000</ele>
        <time>2010-01-01T00:12:51Z</time>
      </trkpt>
      <trkpt lat="50.57452000" lon="6.353450000">
        <ele>465.00000</ele>
        <time>2010-01-01T00:13:00Z</time>
      </trkpt>
      <trkpt lat="50.57439000" lon="6.353400000">
        <ele>466.00000</ele>
        <time>2010-01-01T00:13:05Z</time>
      </trkpt>
      <trkpt lat="50.57432000" lon="6.353400000">
        <ele>466.00000</ele>
        <time>2010-01-01T00:13:08Z</time>
      </trkpt>
      <trkpt lat="50.57409000" lon="6.353460000">
        <ele>468.00000</ele>
        <time>2010-01-01T00:13:17Z</time>
      </trkpt>
      <trkpt lat="50.57390000" lon="6.353570000">
        <ele>468.00000</ele>
        <time>2010-01-01T00:13:25Z</time>
      </trkpt>
      <trkpt lat="50.57375000" lon="6.353660000">
        <ele>469.00000</ele>
        <time>2010-01-01T00:13:32Z</time>
      </trkpt>
      <trkpt lat="50.57346000" lon="6.354080000">
        <ele>470.00000</ele>
        <time>2010-01-01T00:13:48Z</time>
      </trkpt>
      <trkpt lat="50.57321000" lon="6.354520000">
        <ele>472.00000</ele>
        <time>2010-01-01T00:14:03Z</time>
      </trkpt>
      <trkpt lat="50.57298000" lon="6.355040000">
        <ele>476.00000</ele>
        <time>2010-01-01T00:14:19Z</time>
      </trkpt>
      <trkpt lat="50.57278000" lon="6.355770000">
        <ele>479.00000</ele>
        <time>2010-01-01T00:14:39Z</time>
      </trkpt>
      <trkpt lat="50.57256000" lon="6.356990000">
        <ele>494.00000</ele>
        <time>2010-01-01T00:15:11Z</time>
      </trkpt>
      <trkpt lat="50.57227000" lon="6.358960000">
        <ele>502.00000</ele>
        <time>2010-01-01T00:16:03Z</time>
      </trkpt>
      <trkpt lat="50.57215000" lon="6.359530000">
        <ele>501.00000</ele>
        <time>2010-01-01T00:16:18Z</time>
      </trkpt>
      <trkpt lat="50.57191000" lon="6.359910000">
        <ele>505.00000</ele>
        <time>2010-01-01T00:16:31Z</time>
      </trkpt>
      <trkpt lat="50.57157000" lon="6.360060000">
        <ele>512.00000</ele>
        <time>2010-01-01T00:16:46Z</time>
      </trkpt>
      <trkpt lat="50.57148000" lon="6.360040000">
        <ele>515.00000</ele>
        <time>2010-01-01T00:16:49Z</time>
      </trkpt>
      <trkpt lat="50.57143000" lon="6.359960000">
        <ele>517.00000</ele>
        <time>2010-01-01T00:16:52Z</time>
      </trkpt>
      <trkpt lat="50.57063000" lon="6.359150000">
        <ele>521.00000</ele>
        <time>2010-01-01T00:17:30Z</time>
      </trkpt>
      <trkpt lat="50.57024000" lon="6.358800000">
        <ele>519.00000</ele>
        <time>2010-01-01T00:17:48Z</time>
      </trkpt>
      <trkpt lat="50.57000000" lon="6.358620000">
        <ele>517.00000</ele>
        <time>2010-01-01T00:17:59Z</time>
      </trkpt>
      <trkpt lat="50.57000000" lon="6.358610000">
        <ele>518.00000</ele>
        <time>2010-01-01T00:17:59Z</time>
      </trkpt>
      <trkpt lat="50.56981000" lon="6.358480000">
        <ele>515.00000</ele>
        <time>2010-01-01T00:18:07Z</time>
      </trkpt>
      <trkpt lat="50.56952000" lon="6.358170000">
        <ele>514.00000</ele>
        <time>2010-01-01T00:18:21Z</time>
      </trkpt>
      <trkpt lat="50.56925000" lon="6.357750000">
        <ele>513.00000</ele>
        <time>2010-01-01T00:18:37Z</time>
      </trkpt>
      <trkpt lat="50.56914000" lon="6.357540000">
        <ele>512.00000</ele>
        <time>2010-01-01T00:18:43Z</time>
      </trkpt>
      <trkpt lat="50.56901000" lon="6.357160000">
        <ele>509.00000</ele>
        <time>2010-01-01T00:18:54Z</time>
      </trkpt>
      <trkpt lat="50.56895000" lon="6.356890000">
        <ele>507.00000</ele>
        <time>2010-01-01T00:19:02Z</time>
      </trkpt>
      <trkpt lat="50.56888000" lon="6.355960000">
        <ele>505.00000</ele>
        <time>2010-01-01T00:19:26Z</time>
      </trkpt>
      <trkpt lat="50.56883000" lon="6.355510000">
        <ele>505.00000</ele>
        <time>2010-01-01T00:19:37Z</time>
      </trkpt>
      <trkpt lat="50.56860000" lon="6.354750000">
        <ele>505.00000</ele>
        <time>2010-01-01T00:19:59Z</time>
      </trkpt>
      <trkpt lat="50.56849000" lon="6.354540000">
        <ele>505.00000</ele>
        <time>2010-01-01T00:20:05Z</time>
      </trkpt>
      <trkpt lat="50.56835000" lon="6.354350000">
        <ele>505.00000</ele>
        <time>2010-01-01T00:20:13Z</time>
      </trkpt>
      <trkpt lat="50.56821000" lon="6.354280000">
        <ele>504.00000</ele>
        <time>2010-01-01T00:20:19Z</time>
      </trkpt>
      <trkpt lat="50.56800000" lon="6.354260000">
        <ele>503.00000</ele>
        <time>2010-01-01T00:20:27Z</time>
      </trkpt>
      <trkpt lat="50.56781000" lon="6.354330000">
        <ele>502.00000</ele>
        <time>2010-01-01T00:20:35Z</time>
      </trkpt>
      <trkpt lat="50.56759000" lon="6.354500000">
        <ele>501.00000</ele>
        <time>2010-01-01T00:20:45Z</time>
      </trkpt>
      <trkpt lat="50.56736000" lon="6.354740000">
        <ele>497.00000</ele>
        <time>2010-01-01T00:20:56Z</time>
      </trkpt>
      <trkpt lat="50.56697000" lon="6.355050000">
        <ele>493.00000</ele>
        <time>2010-01-01T00:21:13Z</time>
      </trkpt>
      <trkpt lat="50.56680000" lon="6.355130000">
        <ele>492.00000</ele>
        <time>2010-01-01T00:21:20Z</time>
      </trkpt>
      <trkpt lat="50.56669000" lon="6.355160000">
        <ele>491.00000</ele>
        <time>2010-01-01T00:21:25Z</time>
      </trkpt>
      <trkpt lat="50.56650000" lon="6.355160000">
        <ele>491.00000</ele>
        <time>2010-01-01T00:21:33Z</time>
      </trkpt>
      <trkpt lat="50.56623000" lon="6.355010000">
        <ele>494.00000</ele>
        <time>2010-01-01T00:21:44Z</time>
      </trkpt>
      <trkpt lat="50.56575000" lon="6.354690000">
        <ele>493.00000</ele>
        <time>2010-01-01T00:22:05Z</time>
      </trkpt>
      <trkpt lat="50.56546000" lon="6.354370000">
        <ele>492.00000</ele>
        <time>2010-01-01T00:22:19Z</time>
      </trkpt>
      <trkpt lat="50.56492000" lon="6.353210000">
        <ele>489.00000</ele>
        <time>2010-01-01T00:22:56Z</time>
      </trkpt>
      <trkpt lat="50.56473000" lon="6.352750000">
        <ele>490.00000</ele>
        <time>2010-01-01T00:23:10Z</time>
      </trkpt>
      <trkpt lat="50.56464000" lon="6.352420000">
        <ele>491.00000</ele>
        <time>2010-01-01T00:23:19Z</time>
      </trkpt>
      <trkpt lat="50.56459000" lon="6.351840000">
        <ele>492.00000</ele>
        <time>2010-01-01T00:23:34Z</time>
      </trkpt>
      <trkpt lat="50.56462000" lon="6.351440000">
        <ele>493.00000</ele>
        <time>2010-01-01T00:23:44Z</time>
      </trkpt>
      <trkpt lat="50.56460000" lon="6.351040000">
        <ele>493.00000</ele>
        <time>2010-01-01T00:23:54Z</time>
      </trkpt>
      <trkpt lat="50.56457000" lon="6.350660000">
        <ele>494.00000</ele>
        <time>2010-01-01T00:24:04Z</time>
      </trkpt>
      <trkpt lat="50.56455000" lon="6.350320000">
        <ele>495.00000</ele>
        <time>2010-01-01T00:24:12Z</time>
      </trkpt>
      <trkpt lat="50.56455000" lon="6.350310000">
        <ele>495.00000</ele>
        <time>2010-01-01T00:24:13Z</time>
      </trkpt>
      <trkpt lat="50.56455000" lon="6.350230000">
        <ele>496.00000</ele>
        <time>2010-01-01T00:24:15Z</time>
      </trkpt>
      <trkpt lat="50.56447000" lon="6.349980000">
        <ele>495.00000</ele>
        <time>2010-01-01T00:24:22Z</time>
      </trkpt>
      <trkpt lat="50.56433000" lon="6.349740000">
        <ele>498.00000</ele>
        <time>2010-01-01T00:24:30Z</time>
      </trkpt>
      <trkpt lat="50.56406000" lon="6.349520000">
        <ele>498.00000</ele>
        <time>2010-01-01T00:24:42Z</time>
      </trkpt>
      <trkpt lat="50.56325000" lon="6.349070000">
        <ele>492.00000</ele>
        <time>2010-01-01T00:25:17Z</time>
      </trkpt>
      <trkpt lat="50.56287000" lon="6.348890000">
        <ele>492.00000</ele>
        <time>2010-01-01T00:25:33Z</time>
      </trkpt>
      <trkpt lat="50.56248000" lon="6.348840000">
        <ele>490.00000</ele>
        <time>2010-01-01T00:25:48Z</time>
      </trkpt>
      <trkpt lat="50.56187000" lon="6.348350000">
        <ele>493.00000</ele>
        <time>2010-01-01T00:26:16Z</time>
      </trkpt>
      <trkpt lat="50.56128000" lon="6.347780000">
        <ele>493.00000</ele>
        <time>2010-01-01T00:26:43Z</time>
      </trkpt>
      <trkpt lat="50.56102000" lon="6.347570000">
        <ele>494.00000</ele>
        <time>2010-01-01T00:26:55Z</time>
      </trkpt>
      <trkpt lat="50.56075000" lon="6.347470000">
        <ele>496.00000</ele>
        <time>2010-01-01T00:27:06Z</time>
      </trkpt>
      <trkpt lat="50.56058000" lon="6.347520000">
        <ele>496.00000</ele>
        <time>2010-01-01T00:27:13Z</time>
      </trkpt>
      <trkpt lat="50.56042000" lon="6.347660000">
        <ele>496.00000</ele>
        <time>2010-01-01T00:27:20Z</time>
      </trkpt>
      <trkpt lat="50.56025000" lon="6.347950000">
        <ele>495.00000</ele>
        <time>2010-01-01T00:27:30Z</time>
      </trkpt>
      <trkpt lat="50.56008000" lon="6.348340000">
        <ele>496.00000</ele>
        <time>2010-01-01T00:27:42Z</time>
      </trkpt>
      <trkpt lat="50.55996000" lon="6.348510000">
        <ele>497.00000</ele>
        <time>2010-01-01T00:27:49Z</time>
      </trkpt>
      <trkpt lat="50.55977000" lon="6.348640000">
        <ele>498.00000</ele>
        <time>2010-01-01T00:27:57Z</time>
      </trkpt>
      <trkpt lat="50.55944000" lon="6.348680000">
        <ele>497.00000</ele>
        <time>2010-01-01T00:28:10Z</time>
      </trkpt>
      <trkpt lat="50.55921000" lon="6.348620000">
        <ele>499.00000</ele>
        <time>2010-01-01T00:28:20Z</time>
      </trkpt>
      <trkpt lat="50.55908000" lon="6.348630000">
        <ele>500.00000</ele>
        <time>2010-01-01T00:28:25Z</time>
      </trkpt>
      <trkpt lat="50.55894000" lon="6.348700000">
        <ele>500.00000</ele>
        <time>2010-01-01T00:28:31Z</time>
      </trkpt>
      <trkpt lat="50.55888000" lon="6.348790000">
        <ele>499.00000</ele>
        <time>2010-01-01T00:28:34Z</time>
      </trkpt>
      <trkpt lat="50.55884000" lon="6.348930000">
        <ele>497.00000</ele>
        <time>2010-01-01T00:28:38Z</time>
      </trkpt>
      <trkpt lat="50.55783000" lon="6.349820000">
        <ele>494.00000</ele>
        <time>2010-01-01T00:29:24Z</time>
      </trkpt>
      <trkpt lat="50.55729000" lon="6.350180000">
        <ele>494.00000</ele>
        <time>2010-01-01T00:29:48Z</time>
      </trkpt>
      <trkpt lat="50.55707000" lon="6.350240000">
        <ele>495.00000</ele>
        <time>2010-01-01T00:29:57Z</time>
      </trkpt>
      <trkpt lat="50.55671000" lon="6.350220000">
        <ele>494.00000</ele>
        <time>2010-01-01T00:30:11Z</time>
      </trkpt>
      <trkpt lat="50.55649000" lon="6.350250000">
        <ele>495.00000</ele>
        <time>2010-01-01T00:30:20Z</time>
      </trkpt>
      <trkpt lat="50.55631000" lon="6.350300000">
        <ele>496.00000</ele>
        <time>2010-01-01T00:30:27Z</time>
      </trkpt>
      <trkpt lat="50.55586000" lon="6.350630000">
        <ele>496.00000</ele>
        <time>2010-01-01T00:30:47Z</time>
      </trkpt>
      <trkpt lat="50.55514000" lon="6.350960000">
        <ele>498.00000</ele>
        <time>2010-01-01T00:31:17Z</time>
      </trkpt>
      <trkpt lat="50.55481000" lon="6.351040000">
        <ele>502.00000</ele>
        <time>2010-01-01T00:31:31Z</time>
      </trkpt>
      <trkpt lat="50.55446000" lon="6.351030000">
        <ele>507.00000</ele>
        <time>2010-01-01T00:31:45Z</time>
      </trkpt>
      <trkpt lat="50.55424000" lon="6.350900000">
        <ele>507.00000</ele>
        <time>2010-01-01T00:31:54Z</time>
      </trkpt>
      <trkpt lat="50.55400000" lon="6.350690000">
        <ele>506.00000</ele>
        <time>2010-01-01T00:32:05Z</time>
      </trkpt>
      <trkpt lat="50.55366000" lon="6.350320000">
        <ele>505.00000</ele>
        <time>2010-01-01T00:32:22Z</time>
      </trkpt>
      <trkpt lat="50.55341000" lon="6.349890000">
        <ele>505.00000</ele>
        <time>2010-01-01T00:32:36Z</time>
      </trkpt>
      <trkpt lat="50.55330000" lon="6.349780000">
        <ele>507.00000</ele>
        <time>2010-01-01T00:32:42Z</time>
      </trkpt>
      <trkpt lat="50.55321000" lon="6.349840000">
        <ele>508.00000</ele>
        <time>2010-01-01T00:32:46Z</time>
      </trkpt>
      <trkpt lat="50.55292000" lon="6.350130000">
        <ele>509.00000</ele>
        <time>2010-01-01T00:32:59Z</time>
      </trkpt>
      <trkpt lat="50.55257000" lon="6.350610000">
        <ele>506.00000</ele>
        <time>2010-01-01T00:33:18Z</time>
      </trkpt>
      <trkpt lat="50.55238000" lon="6.351300000">
        <ele>509.00000</ele>
        <time>2010-01-01T00:33:37Z</time>
      </trkpt>
      <trkpt lat="50.55219000" lon="6.352120000">
        <ele>502.00000</ele>
        <time>2010-01-01T00:33:59Z</time>
      </trkpt>
      <trkpt lat="50.55211000" lon="6.352320000">
        <ele>502.00000</ele>
        <time>2010-01-01T00:34:05Z</time>
      </trkpt>
      <trkpt lat="50.55173000" lon="6.352990000">
        <ele>502.00000</ele>
        <time>2010-01-01T00:34:28Z</time>
      </trkpt>
      <trkpt lat="50.55105000" lon="6.353470000">
        <ele>502.00000</ele>
        <time>2010-01-01T00:34:58Z</time>
      </trkpt>
      <trkpt lat="50.55086000" lon="6.353450000">
        <ele>499.00000</ele>
        <time>2010-01-01T00:35:06Z</time>
      </trkpt>
      <trkpt lat="50.55069000" lon="6.353300000">
        <ele>500.00000</ele>
        <time>2010-01-01T00:35:13Z</time>
      </trkpt>
      <trkpt lat="50.54991000" lon="6.352290000">
        <ele>508.00000</ele>
        <time>2010-01-01T00:35:54Z</time>
      </trkpt>
      <trkpt lat="50.54965000" lon="6.352160000">
        <ele>502.00000</ele>
        <time>2010-01-01T00:36:05Z</time>
      </trkpt>
      <trkpt lat="50.54936000" lon="6.352070000">
        <ele>499.00000</ele>
        <time>2010-01-01T00:36:17Z</time>
      </trkpt>
      <trkpt lat="50.54919000" lon="6.352060000">
        <ele>500.00000</ele>
        <time>2010-01-01T00:36:23Z</time>
      </trkpt>
      <trkpt lat="50.54865000" lon="6.352110000">
        <ele>495.00000</ele>
        <time>2010-01-01T00:36:45Z</time>
      </trkpt>
      <trkpt lat="50.54829000" lon="6.352210000">
        <ele>488.00000</ele>
        <time>2010-01-01T00:37:00Z</time>
      </trkpt>
      <trkpt lat="50.54810000" lon="6.352160000">
        <ele>485.00000</ele>
        <time>2010-01-01T00:37:07Z</time>
      </trkpt>
      <trkpt lat="50.54795000" lon="6.352030000">
        <ele>485.00000</ele>
        <time>2010-01-01T00:37:14Z</time>
      </trkpt>
      <trkpt lat="50.54765000" lon="6.351400000">
        <ele>490.00000</ele>
        <time>2010-01-01T00:37:34Z</time>
      </trkpt>
      <trkpt lat="50.54749000" lon="6.351130000">
        <ele>490.00000</ele>
        <time>2010-01-01T00:37:44Z</time>
      </trkpt>
      <trkpt lat="50.54695000" lon="6.350500000">
        <ele>480.00000</ele>
        <time>2010-01-01T00:38:11Z</time>
      </trkpt>
      <trkpt lat="50.54654000" lon="6.350080000">
        <ele>476.00000</ele>
        <time>2010-01-01T00:38:30Z</time>
      </trkpt>
      <trkpt lat="50.54645000" lon="6.349990000">
        <ele>476.00000</ele>
        <time>2010-01-01T00:38:34Z</time>
      </trkpt>
      <trkpt lat="50.54640000" lon="6.350010000">
        <ele>474.00000</ele>
        <time>2010-01-01T00:38:36Z</time>
      </trkpt>
      <trkpt lat="50.54632000" lon="6.350010000">
        <ele>471.00000</ele>
        <time>2010-01-01T00:38:40Z</time>
      </trkpt>
      <trkpt lat="50.54622000" lon="6.349920000">
        <ele>469.00000</ele>
        <time>2010-01-01T00:38:44Z</time>
      </trkpt>
      <trkpt lat="50.54607000" lon="6.349730000">
        <ele>466.00000</ele>
        <time>2010-01-01T00:38:52Z</time>
      </trkpt>
      <trkpt lat="50.54588000" lon="6.349310000">
        <ele>465.00000</ele>
        <time>2010-01-01T00:39:05Z</time>
      </trkpt>
      <trkpt lat="50.54572000" lon="6.348810000">
        <ele>469.00000</ele>
        <time>2010-01-01T00:39:19Z</time>
      </trkpt>
      <trkpt lat="50.54544000" lon="6.348050000">
        <ele>476.00000</ele>
        <time>2010-01-01T00:39:42Z</time>
      </trkpt>
      <trkpt lat="50.54525000" lon="6.347740000">
        <ele>476.00000</ele>
        <time>2010-01-01T00:39:53Z</time>
      </trkpt>
      <trkpt lat="50.54520000" lon="6.347740000">
        <ele>476.00000</ele>
        <time>2010-01-01T00:39:55Z</time>
      </trkpt>
      <trkpt lat="50.54514000" lon="6.347800000">
        <ele>476.00000</ele>
        <time>2010-01-01T00:39:57Z</time>
      </trkpt>
      <trkpt lat="50.54510000" lon="6.347920000">
        <ele>476.00000</ele>
        <time>2010-01-01T00:40:01Z</time>
      </trkpt>
      <trkpt lat="50.54522000" lon="6.348220000">
        <ele>473.00000</ele>
        <time>2010-01-01T00:40:10Z</time>
      </trkpt>
      <trkpt lat="50.54521000" lon="6.348220000">
        <ele>473.00000</ele>
        <time>2010-01-01T00:40:10Z</time>
      </trkpt>
      <trkpt lat="50.54563000" lon="6.349110000">
        <ele>465.00000</ele>
        <time>2010-01-01T00:40:39Z</time>
      </trkpt>
      <trkpt lat="50.54599000" lon="6.350210000">
        <ele>461.00000</ele>
        <time>2010-01-01T00:41:10Z</time>
      </trkpt>
      <trkpt lat="50.54629000" lon="6.350760000">
        <ele>460.00000</ele>
        <time>2010-01-01T00:41:28Z</time>
      </trkpt>
      <trkpt lat="50.54653000" lon="6.351110000">
        <ele>458.00000</ele>
        <time>2010-01-01T00:41:42Z</time>
      </trkpt>
      <trkpt lat="50.54673000" lon="6.351450000">
        <ele>456.00000</ele>
        <time>2010-01-01T00:41:53Z</time>
      </trkpt>
      <trkpt lat="50.54700000" lon="6.351980000">
        <ele>453.00000</ele>
        <time>2010-01-01T00:42:11Z</time>
      </trkpt>
      <trkpt lat="50.54713000" lon="6.352150000">
        <ele>452.00000</ele>
        <time>2010-01-01T00:42:17Z</time>
      </trkpt>
      <trkpt lat="50.54728000" lon="6.352580000">
        <ele>447.00000</ele>
        <time>2010-01-01T00:42:30Z</time>
      </trkpt>
      <trkpt lat="50.54745000" lon="6.352970000">
        <ele>443.00000</ele>
        <time>2010-01-01T00:42:42Z</time>
      </trkpt>
      <trkpt lat="50.54768000" lon="6.353310000">
        <ele>437.00000</ele>
        <time>2010-01-01T00:42:55Z</time>
      </trkpt>
      <trkpt lat="50.54804000" lon="6.353600000">
        <ele>435.00000</ele>
        <time>2010-01-01T00:43:11Z</time>
      </trkpt>
      <trkpt lat="50.54853000" lon="6.353660000">
        <ele>439.00000</ele>
        <time>2010-01-01T00:43:30Z</time>
      </trkpt>
      <trkpt lat="50.54869000" lon="6.353690000">
        <ele>440.00000</ele>
        <time>2010-01-01T00:43:37Z</time>
      </trkpt>
      <trkpt lat="50.54872000" lon="6.353780000">
        <ele>437.00000</ele>
        <time>2010-01-01T00:43:39Z</time>
      </trkpt>
      <trkpt lat="50.54866000" lon="6.353890000">
        <ele>433.00000</ele>
        <time>2010-01-01T00:43:43Z</time>
      </trkpt>
      <trkpt lat="50.54859000" lon="6.353900000">
        <ele>432.00000</ele>
        <time>2010-01-01T00:43:46Z</time>
      </trkpt>
      <trkpt lat="50.54838000" lon="6.353810000">
        <ele>433.00000</ele>
        <time>2010-01-01T00:43:55Z</time>
      </trkpt>
      <trkpt lat="50.54826000" lon="6.353810000">
        <ele>431.00000</ele>
        <time>2010-01-01T00:43:59Z</time>
      </trkpt>
      <trkpt lat="50.54809000" lon="6.353830000">
        <ele>428.00000</ele>
        <time>2010-01-01T00:44:06Z</time>
      </trkpt>
      <trkpt lat="50.54788000" lon="6.353820000">
        <ele>426.00000</ele>
        <time>2010-01-01T00:44:15Z</time>
      </trkpt>
      <trkpt lat="50.54774000" lon="6.353760000">
        <ele>427.00000</ele>
        <time>2010-01-01T00:44:20Z</time>
      </trkpt>
      <trkpt lat="50.54746000" lon="6.353470000">
        <ele>432.00000</ele>
        <time>2010-01-01T00:44:34Z</time>
      </trkpt>
      <trkpt lat="50.54739000" lon="6.353430000">
        <ele>432.00000</ele>
        <time>2010-01-01T00:44:37Z</time>
      </trkpt>
      <trkpt lat="50.54734000" lon="6.353500000">
        <ele>431.00000</ele>
        <time>2010-01-01T00:44:40Z</time>
      </trkpt>
      <trkpt lat="50.54735000" lon="6.353630000">
        <ele>430.00000</ele>
        <time>2010-01-01T00:44:43Z</time>
      </trkpt>
      <trkpt lat="50.54763000" lon="6.353910000">
        <ele>424.00000</ele>
        <time>2010-01-01T00:44:56Z</time>
      </trkpt>
      <trkpt lat="50.54777000" lon="6.353990000">
        <ele>422.00000</ele>
        <time>2010-01-01T00:45:02Z</time>
      </trkpt>
      <trkpt lat="50.54803000" lon="6.354060000">
        <ele>423.00000</ele>
        <time>2010-01-01T00:45:13Z</time>
      </trkpt>
      <trkpt lat="50.54819000" lon="6.354150000">
        <ele>424.00000</ele>
        <time>2010-01-01T00:45:19Z</time>
      </trkpt>
      <trkpt lat="50.54794000" lon="6.354190000">
        <ele>421.00000</ele>
        <time>2010-01-01T00:45:30Z</time>
      </trkpt>
      <trkpt lat="50.54767000" lon="6.354180000">
        <ele>420.00000</ele>
        <time>2010-01-01T00:45:40Z</time>
      </trkpt>
      <trkpt lat="50.54766000" lon="6.354180000">
        <ele>420.00000</ele>
        <time>2010-01-01T00:45:41Z</time>
      </trkpt>
      <trkpt lat="50.54753000" lon="6.354180000">
        <ele>420.00000</ele>
        <time>2010-01-01T00:45:46Z</time>
      </trkpt>
      <trkpt lat="50.54724000" lon="6.354360000">
        <ele>421.00000</ele>
        <time>2010-01-01T00:45:58Z</time>
      </trkpt>
      <trkpt lat="50.54710000" lon="6.354500000">
        <ele>427.00000</ele>
        <time>2010-01-01T00:46:05Z</time>
      </trkpt>
      <trkpt lat="50.54697000" lon="6.354680000">
        <ele>433.00000</ele>
        <time>2010-01-01T00:46:12Z</time>
      </trkpt>
      <trkpt lat="50.54686000" lon="6.354910000">
        <ele>434.00000</ele>
        <time>2010-01-01T00:46:19Z</time>
      </trkpt>
      <trkpt lat="50.54668000" lon="6.355950000">
        <ele>434.00000</ele>
        <time>2010-01-01T00:46:47Z</time>
      </trkpt>
      <trkpt lat="50.54659000" lon="6.356300000">
        <ele>434.00000</ele>
        <time>2010-01-01T00:46:56Z</time>
      </trkpt>
      <trkpt lat="50.54641000" lon="6.356620000">
        <ele>431.00000</ele>
        <time>2010-01-01T00:47:07Z</time>
      </trkpt>
      <trkpt lat="50.54624000" lon="6.356810000">
        <ele>433.00000</ele>
        <time>2010-01-01T00:47:16Z</time>
      </trkpt>
      <trkpt lat="50.54609000" lon="6.356890000">
        <ele>434.00000</ele>
        <time>2010-01-01T00:47:22Z</time>
      </trkpt>
      <trkpt lat="50.54504000" lon="6.357150000">
        <ele>437.00000</ele>
        <time>2010-01-01T00:48:04Z</time>
      </trkpt>
      <trkpt lat="50.54476000" lon="6.357250000">
        <ele>441.00000</ele>
        <time>2010-01-01T00:48:16Z</time>
      </trkpt>
      <trkpt lat="50.54445000" lon="6.357480000">
        <ele>445.00000</ele>
        <time>2010-01-01T00:48:30Z</time>
      </trkpt>
      <trkpt lat="50.54420000" lon="6.357800000">
        <ele>444.00000</ele>
        <time>2010-01-01T00:48:43Z</time>
      </trkpt>
      <trkpt lat="50.54402000" lon="6.358060000">
        <ele>446.00000</ele>
        <time>2010-01-01T00:48:52Z</time>
      </trkpt>
      <trkpt lat="50.54386000" lon="6.358380000">
        <ele>445.00000</ele>
        <time>2010-01-01T00:49:03Z</time>
      </trkpt>
      <trkpt lat="50.54369000" lon="6.358660000">
        <ele>444.00000</ele>
        <time>2010-01-01T00:49:13Z</time>
      </trkpt>
      <trkpt lat="50.54365000" lon="6.358780000">
        <ele>442.00000</ele>
        <time>2010-01-01T00:49:16Z</time>
      </trkpt>
      <trkpt lat="50.54363000" lon="6.358890000">
        <ele>441.00000</ele>
        <time>2010-01-01T00:49:19Z</time>
      </trkpt>
      <trkpt lat="50.54365000" lon="6.358980000">
        <ele>441.00000</ele>
        <time>2010-01-01T00:49:21Z</time>
      </trkpt>
      <trkpt lat="50.54371000" lon="6.359030000">
        <ele>442.00000</ele>
        <time>2010-01-01T00:49:24Z</time>
      </trkpt>
      <trkpt lat="50.54373000" lon="6.359160000">
        <ele>443.00000</ele>
        <time>2010-01-01T00:49:27Z</time>
      </trkpt>
      <trkpt lat="50.54369000" lon="6.359220000">
        <ele>444.00000</ele>
        <time>2010-01-01T00:49:30Z</time>
      </trkpt>
      <trkpt lat="50.54353000" lon="6.359230000">
        <ele>443.00000</ele>
        <time>2010-01-01T00:49:36Z</time>
      </trkpt>
      <trkpt lat="50.54332000" lon="6.359170000">
        <ele>442.00000</ele>
        <time>2010-01-01T00:49:45Z</time>
      </trkpt>
      <trkpt lat="50.54308000" lon="6.359030000">
        <ele>443.00000</ele>
        <time>2010-01-01T00:49:55Z</time>
      </trkpt>
      <trkpt lat="50.54276000" lon="6.358780000">
        <ele>449.00000</ele>
        <time>2010-01-01T00:50:09Z</time>
      </trkpt>
      <trkpt lat="50.54247000" lon="6.358510000">
        <ele>451.00000</ele>
        <time>2010-01-01T00:50:23Z</time>
      </trkpt>
      <trkpt lat="50.54227000" lon="6.358370000">
        <ele>450.00000</ele>
        <time>2010-01-01T00:50:31Z</time>
      </trkpt>
      <trkpt lat="50.54205000" lon="6.358310000">
        <ele>450.00000</ele>
        <time>2010-01-01T00:50:40Z</time>
      </trkpt>
      <trkpt lat="50.54167000" lon="6.358310000">
        <ele>453.00000</ele>
        <time>2010-01-01T00:50:56Z</time>
      </trkpt>
      <trkpt lat="50.54172000" lon="6.358480000">
        <ele>455.00000</ele>
        <time>2010-01-01T00:51:00Z</time>
      </trkpt>
      <trkpt lat="50.54182000" lon="6.358530000">
        <ele>455.00000</ele>
        <time>2010-01-01T00:51:05Z</time>
      </trkpt>
      <trkpt lat="50.54194000" lon="6.358640000">
        <ele>456.00000</ele>
        <time>2010-01-01T00:51:10Z</time>
      </trkpt>
      <trkpt lat="50.54203000" lon="6.358810000">
        <ele>459.00000</ele>
        <time>2010-01-01T00:51:16Z</time>
      </trkpt>
      <trkpt lat="50.54210000" lon="6.359020000">
        <ele>463.00000</ele>
        <time>2010-01-01T00:51:22Z</time>
      </trkpt>
      <trkpt lat="50.54219000" lon="6.359200000">
        <ele>466.00000</ele>
        <time>2010-01-01T00:51:28Z</time>
      </trkpt>
      <trkpt lat="50.54231000" lon="6.359290000">
        <ele>467.00000</ele>
        <time>2010-01-01T00:51:33Z</time>
      </trkpt>
      <trkpt lat="50.54234000" lon="6.359420000">
        <ele>469.00000</ele>
        <time>2010-01-01T00:51:36Z</time>
      </trkpt>
      <trkpt lat="50.54229000" lon="6.359580000">
        <ele>471.00000</ele>
        <time>2010-01-01T00:51:41Z</time>
      </trkpt>
      <trkpt lat="50.54234000" lon="6.359720000">
        <ele>472.00000</ele>
        <time>2010-01-01T00:51:45Z</time>
      </trkpt>
      <trkpt lat="50.54230000" lon="6.359780000">
        <ele>473.00000</ele>
        <time>2010-01-01T00:51:47Z</time>
      </trkpt>
      <trkpt lat="50.54223000" lon="6.359750000">
        <ele>473.00000</ele>
        <time>2010-01-01T00:51:50Z</time>
      </trkpt>
      <trkpt lat="50.54208000" lon="6.359630000">
        <ele>471.00000</ele>
        <time>2010-01-01T00:51:57Z</time>
      </trkpt>
      <trkpt lat="50.54203000" lon="6.359630000">
        <ele>471.00000</ele>
        <time>2010-01-01T00:51:59Z</time>
      </trkpt>
      <trkpt lat="50.54198000" lon="6.359660000">
        <ele>471.00000</ele>
        <time>2010-01-01T00:52:01Z</time>
      </trkpt>
      <trkpt lat="50.54196000" lon="6.359760000">
        <ele>472.00000</ele>
        <time>2010-01-01T00:52:04Z</time>
      </trkpt>
      <trkpt lat="50.54200000" lon="6.359910000">
        <ele>473.00000</ele>
        <time>2010-01-01T00:52:08Z</time>
      </trkpt>
      <trkpt lat="50.54207000" lon="6.360030000">
        <ele>475.00000</ele>
        <time>2010-01-01T00:52:12Z</time>
      </trkpt>
      <trkpt lat="50.54218000" lon="6.360130000">
        <ele>476.00000</ele>
        <time>2010-01-01T00:52:17Z</time>
      </trkpt>
      <trkpt lat="50.54230000" lon="6.360280000">
        <ele>480.00000</ele>
        <time>2010-01-01T00:52:23Z</time>
      </trkpt>
      <trkpt lat="50.54259000" lon="6.360850000">
        <ele>489.00000</ele>
        <time>2010-01-01T00:52:42Z</time>
      </trkpt>
      <trkpt lat="50.54255000" lon="6.360900000">
        <ele>490.00000</ele>
        <time>2010-01-01T00:52:44Z</time>
      </trkpt>
      <trkpt lat="50.54247000" lon="6.360880000">
        <ele>489.00000</ele>
        <time>2010-01-01T00:52:47Z</time>
      </trkpt>
      <trkpt lat="50.54239000" lon="6.360910000">
        <ele>488.00000</ele>
        <time>2010-01-01T00:52:50Z</time>
      </trkpt>
      <trkpt lat="50.54238000" lon="6.361000000">
        <ele>489.00000</ele>
        <time>2010-01-01T00:52:53Z</time>
      </trkpt>
      <trkpt lat="50.54242000" lon="6.361320000">
        <ele>492.00000</ele>
        <time>2010-01-01T00:53:01Z</time>
      </trkpt>
      <trkpt lat="50.54235000" lon="6.361680000">
        <ele>495.00000</ele>
        <time>2010-01-01T00:53:11Z</time>
      </trkpt>
      <trkpt lat="50.54234000" lon="6.361920000">
        <ele>496.00000</ele>
        <time>2010-01-01T00:53:17Z</time>
      </trkpt>
      <trkpt lat="50.54237000" lon="6.362260000">
        <ele>498.00000</ele>
        <time>2010-01-01T00:53:25Z</time>
      </trkpt>
      <trkpt lat="50.54248000" lon="6.362580000">
        <ele>501.00000</ele>
        <time>2010-01-01T00:53:35Z</time>
      </trkpt>
      <trkpt lat="50.54253000" lon="6.362670000">
        <ele>502.00000</ele>
        <time>2010-01-01T00:53:38Z</time>
      </trkpt>
      <trkpt lat="50.54273000" lon="6.362810000">
        <ele>505.00000</ele>
        <time>2010-01-01T00:53:46Z</time>
      </trkpt>
      <trkpt lat="50.54296000" lon="6.362820000">
        <ele>507.00000</ele>
        <time>2010-01-01T00:53:56Z</time>
      </trkpt>
      <trkpt lat="50.54317000" lon="6.362910000">
        <ele>508.00000</ele>
        <time>2010-01-01T00:54:04Z</time>
      </trkpt>
      <trkpt lat="50.54348000" lon="6.363230000">
        <ele>510.00000</ele>
        <time>2010-01-01T00:54:19Z</time>
      </trkpt>
      <trkpt lat="50.54404000" lon="6.363720000">
        <ele>521.00000</ele>
        <time>2010-01-01T00:54:45Z</time>
      </trkpt>
      <trkpt lat="50.54425000" lon="6.364210000">
        <ele>527.00000</ele>
        <time>2010-01-01T00:55:00Z</time>
      </trkpt>
      <trkpt lat="50.54435000" lon="6.364540000">
        <ele>528.00000</ele>
        <time>2010-01-01T00:55:09Z</time>
      </trkpt>
      <trkpt lat="50.54446000" lon="6.364810000">
        <ele>529.00000</ele>
        <time>2010-01-01T00:55:17Z</time>
      </trkpt>
      <trkpt lat="50.54474000" lon="6.365130000">
        <ele>532.00000</ele>
        <time>2010-01-01T00:55:31Z</time>
      </trkpt>
      <trkpt lat="50.54500000" lon="6.365630000">
        <ele>536.00000</ele>
        <time>2010-01-01T00:55:48Z</time>
      </trkpt>
      <trkpt lat="50.54480000" lon="6.365920000">
        <ele>536.00000</ele>
        <time>2010-01-01T00:55:59Z</time>
      </trkpt>
      <trkpt lat="50.54458000" lon="6.366010000">
        <ele>536.00000</ele>
        <time>2010-01-01T00:56:08Z</time>
      </trkpt>
      <trkpt lat="50.54387000" lon="6.366190000">
        <ele>535.00000</ele>
        <time>2010-01-01T00:56:36Z</time>
      </trkpt>
      <trkpt lat="50.54331000" lon="6.366420000">
        <ele>535.00000</ele>
        <time>2010-01-01T00:57:00Z</time>
      </trkpt>
      <trkpt lat="50.54287000" lon="6.366680000">
        <ele>541.00000</ele>
        <time>2010-01-01T00:57:18Z</time>
      </trkpt>
      <trkpt lat="50.54236000" lon="6.366650000">
        <ele>543.00000</ele>
        <time>2010-01-01T00:57:39Z</time>
      </trkpt>
      <trkpt lat="50.54211000" lon="6.366670000">
        <ele>543.00000</ele>
        <time>2010-01-01T00:57:49Z</time>
      </trkpt>
      <trkpt lat="50.54163000" lon="6.366760000">
        <ele>543.00000</ele>
        <time>2010-01-01T00:58:08Z</time>
      </trkpt>
      <trkpt lat="50.54029000" lon="6.367640000">
        <ele>550.00000</ele>
        <time>2010-01-01T00:59:06Z</time>
      </trkpt>
      <trkpt lat="50.53992000" lon="6.368040000">
        <ele>554.00000</ele>
        <time>2010-01-01T00:59:24Z</time>
      </trkpt>
      <trkpt lat="50.53947000" lon="6.368880000">
        <ele>554.00000</ele>
        <time>2010-01-01T00:59:52Z</time>
      </trkpt>
      <trkpt lat="50.53936000" lon="6.369400000">
        <ele>551.00000</ele>
        <time>2010-01-01T01:00:06Z</time>
      </trkpt>
      <trkpt lat="50.53927000" lon="6.369980000">
        <ele>549.00000</ele>
        <time>2010-01-01T01:00:21Z</time>
      </trkpt>
      <trkpt lat="50.53923000" lon="6.371690000">
        <ele>547.00000</ele>
        <time>2010-01-01T01:01:05Z</time>
      </trkpt>
      <trkpt lat="50.53909000" lon="6.372540000">
        <ele>544.00000</ele>
        <time>2010-01-01T01:01:27Z</time>
      </trkpt>
      <trkpt lat="50.53899000" lon="6.372940000">
        <ele>543.00000</ele>
        <time>2010-01-01T01:01:38Z</time>
      </trkpt>
      <trkpt lat="50.53862000" lon="6.373890000">
        <ele>539.00000</ele>
        <time>2010-01-01T01:02:07Z</time>
      </trkpt>
      <trkpt lat="50.53834000" lon="6.374340000">
        <ele>534.00000</ele>
        <time>2010-01-01T01:02:23Z</time>
      </trkpt>
      <trkpt lat="50.53806000" lon="6.374860000">
        <ele>532.00000</ele>
        <time>2010-01-01T01:02:40Z</time>
      </trkpt>
      <trkpt lat="50.53790000" lon="6.374910000">
        <ele>530.00000</ele>
        <time>2010-01-01T01:02:46Z</time>
      </trkpt>
      <trkpt lat="50.53754000" lon="6.374620000">
        <ele>529.00000</ele>
        <time>2010-01-01T01:03:03Z</time>
      </trkpt>
      <trkpt lat="50.53723000" lon="6.374260000">
        <ele>530.00000</ele>
        <time>2010-01-01T01:03:18Z</time>
      </trkpt>
      <trkpt lat="50.53574000" lon="6.372800000">
        <ele>550.00000</ele>
        <time>2010-01-01T01:04:28Z</time>
      </trkpt>
      <trkpt lat="50.53518000" lon="6.372280000">
        <ele>560.00000</ele>
        <time>2010-01-01T01:04:54Z</time>
      </trkpt>
      <trkpt lat="50.53490000" lon="6.371820000">
        <ele>562.00000</ele>
        <time>2010-01-01T01:05:11Z</time>
      </trkpt>
      <trkpt lat="50.53463000" lon="6.371320000">
        <ele>566.00000</ele>
        <time>2010-01-01T01:05:27Z</time>
      </trkpt>
      <trkpt lat="50.53357000" lon="6.370050000">
        <ele>575.00000</ele>
        <time>2010-01-01T01:06:21Z</time>
      </trkpt>
      <trkpt lat="50.53248000" lon="6.369040000">
        <ele>585.00000</ele>
        <time>2010-01-01T01:07:11Z</time>
      </trkpt>
      <trkpt lat="50.53110000" lon="6.367700000">
        <ele>580.00000</ele>
        <time>2010-01-01T01:08:16Z</time>
      </trkpt>
      <trkpt lat="50.53058000" lon="6.367220000">
        <ele>576.00000</ele>
        <time>2010-01-01T01:08:40Z</time>
      </trkpt>
      <trkpt lat="50.52986000" lon="6.366860000">
        <ele>567.00000</ele>
        <time>2010-01-01T01:09:11Z</time>
      </trkpt>
      <trkpt lat="50.52915000" lon="6.366340000">
        <ele>565.00000</ele>
        <time>2010-01-01T01:09:42Z</time>
      </trkpt>
      <trkpt lat="50.52853000" lon="6.366010000">
        <ele>578.00000</ele>
        <time>2010-01-01T01:10:08Z</time>
      </trkpt>
      <trkpt lat="50.52740000" lon="6.365660000">
        <ele>592.00000</ele>
        <time>2010-01-01T01:10:54Z</time>
      </trkpt>
      <trkpt lat="50.52607000" lon="6.364540000">
        <ele>593.00000</ele>
        <time>2010-01-01T01:11:55Z</time>
      </trkpt>
      <trkpt lat="50.52596000" lon="6.364470000">
        <ele>592.00000</ele>
        <time>2010-01-01T01:11:59Z</time>
      </trkpt>
      <trkpt lat="50.52588000" lon="6.364490000">
        <ele>591.00000</ele>
        <time>2010-01-01T01:12:03Z</time>
      </trkpt>
      <trkpt lat="50.52582000" lon="6.364570000">
        <ele>590.00000</ele>
        <time>2010-01-01T01:12:06Z</time>
      </trkpt>
      <trkpt lat="50.52576000" lon="6.364990000">
        <ele>589.00000</ele>
        <time>2010-01-01T01:12:17Z</time>
      </trkpt>
      <trkpt lat="50.52264000" lon="6.363890000">
        <ele>575.00000</ele>
        <time>2010-01-01T01:14:25Z</time>
      </trkpt>
      <trkpt lat="50.52285000" lon="6.363070000">
        <ele>572.00000</ele>
        <time>2010-01-01T01:14:47Z</time>
      </trkpt>
      <trkpt lat="50.52299000" lon="6.362200000">
        <ele>571.00000</ele>
        <time>2010-01-01T01:15:10Z</time>
      </trkpt>
      <trkpt lat="50.52301000" lon="6.361310000">
        <ele>572.00000</ele>
        <time>2010-01-01T01:15:33Z</time>
      </trkpt>
      <trkpt lat="50.52312000" lon="6.359660000">
        <ele>564.00000</ele>
        <time>2010-01-01T01:16:15Z</time>
      </trkpt>
      <trkpt lat="50.52344000" lon="6.358310000">
        <ele>562.00000</ele>
        <time>2010-01-01T01:16:52Z</time>
      </trkpt>
      <trkpt lat="50.52363000" lon="6.357640000">
        <ele>563.00000</ele>
        <time>2010-01-01T01:17:10Z</time>
      </trkpt>
      <trkpt lat="50.52377000" lon="6.356950000">
        <ele>559.00000</ele>
        <time>2010-01-01T01:17:29Z</time>
      </trkpt>
      <trkpt lat="50.52407000" lon="6.355880000">
        <ele>555.00000</ele>
        <time>2010-01-01T01:17:58Z</time>
      </trkpt>
      <trkpt lat="50.52427000" lon="6.355400000">
        <ele>552.00000</ele>
        <time>2010-01-01T01:18:13Z</time>
      </trkpt>
      <trkpt lat="50.52448000" lon="6.355220000">
        <ele>552.00000</ele>
        <time>2010-01-01T01:18:23Z</time>
      </trkpt>
      <trkpt lat="50.52462000" lon="6.355130000">
        <ele>553.00000</ele>
        <time>2010-01-01T01:18:29Z</time>
      </trkpt>
      <trkpt lat="50.52507000" lon="6.355010000">
        <ele>553.00000</ele>
        <time>2010-01-01T01:18:47Z</time>
      </trkpt>
      <trkpt lat="50.52552000" lon="6.354760000">
        <ele>550.00000</ele>
        <time>2010-01-01T01:19:06Z</time>
      </trkpt>
      <trkpt lat="50.52582000" lon="6.354450000">
        <ele>545.00000</ele>
        <time>2010-01-01T01:19:20Z</time>
      </trkpt>
      <trkpt lat="50.52600000" lon="6.354150000">
        <ele>543.00000</ele>
        <time>2010-01-01T01:19:31Z</time>
      </trkpt>
      <trkpt lat="50.52618000" lon="6.353680000">
        <ele>538.00000</ele>
        <time>2010-01-01T01:19:45Z</time>
      </trkpt>
      <trkpt lat="50.52625000" lon="6.353450000">
        <ele>536.00000</ele>
        <time>2010-01-01T01:19:51Z</time>
      </trkpt>
      <trkpt lat="50.52632000" lon="6.353050000">
        <ele>532.00000</ele>
        <time>2010-01-01T01:20:02Z</time>
      </trkpt>
      <trkpt lat="50.52645000" lon="6.352940000">
        <ele>531.00000</ele>
        <time>2010-01-01T01:20:08Z</time>
      </trkpt>
      <trkpt lat="50.52657000" lon="6.352940000">
        <ele>530.00000</ele>
        <time>2010-01-01T01:20:13Z</time>
      </trkpt>
      <trkpt lat="50.52671000" lon="6.352980000">
        <ele>530.00000</ele>
        <time>2010-01-01T01:20:18Z</time>
      </trkpt>
      <trkpt lat="50.52695000" lon="6.353170000">
        <ele>532.00000</ele>
        <time>2010-01-01T01:20:29Z</time>
      </trkpt>
      <trkpt lat="50.52732000" lon="6.353410000">
        <ele>528.00000</ele>
        <time>2010-01-01T01:20:45Z</time>
      </trkpt>
      <trkpt lat="50.52774000" lon="6.353770000">
        <ele>527.00000</ele>
        <time>2010-01-01T01:21:04Z</time>
      </trkpt>
      <trkpt lat="50.52863000" lon="6.354410000">
        <ele>525.00000</ele>
        <time>2010-01-01T01:21:43Z</time>
      </trkpt>
      <trkpt lat="50.52948000" lon="6.355140000">
        <ele>521.00000</ele>
        <time>2010-01-01T01:22:22Z</time>
      </trkpt>
      <trkpt lat="50.52966000" lon="6.355330000">
        <ele>518.00000</ele>
        <time>2010-01-01T01:22:31Z</time>
      </trkpt>
      <trkpt lat="50.52988000" lon="6.355660000">
        <ele>515.00000</ele>
        <time>2010-01-01T01:22:43Z</time>
      </trkpt>
      <trkpt lat="50.53007000" lon="6.356090000">
        <ele>514.00000</ele>
        <time>2010-01-01T01:22:56Z</time>
      </trkpt>
      <trkpt lat="50.53109000" lon="6.355940000">
        <ele>509.00000</ele>
        <time>2010-01-01T01:23:37Z</time>
      </trkpt>
      <trkpt lat="50.53191000" lon="6.355590000">
        <ele>506.00000</ele>
        <time>2010-01-01T01:24:11Z</time>
      </trkpt>
      <trkpt lat="50.53238000" lon="6.355180000">
        <ele>499.00000</ele>
        <time>2010-01-01T01:24:33Z</time>
      </trkpt>
      <trkpt lat="50.53259000" lon="6.355180000">
        <ele>501.00000</ele>
        <time>2010-01-01T01:24:41Z</time>
      </trkpt>
      <trkpt lat="50.53288000" lon="6.355020000">
        <ele>499.00000</ele>
        <time>2010-01-01T01:24:54Z</time>
      </trkpt>
      <trkpt lat="50.53308000" lon="6.354940000">
        <ele>499.00000</ele>
        <time>2010-01-01T01:25:02Z</time>
      </trkpt>
      <trkpt lat="50.53332000" lon="6.354970000">
        <ele>499.00000</ele>
        <time>2010-01-01T01:25:12Z</time>
      </trkpt>
      <trkpt lat="50.53355000" lon="6.355020000">
        <ele>499.00000</ele>
        <time>2010-01-01T01:25:21Z</time>
      </trkpt>
      <trkpt lat="50.53398000" lon="6.355320000">
        <ele>501.00000</ele>
        <time>2010-01-01T01:25:40Z</time>
      </trkpt>
      <trkpt lat="50.53491000" lon="6.356220000">
        <ele>498.00000</ele>
        <time>2010-01-01T01:26:23Z</time>
      </trkpt>
      <trkpt lat="50.53589000" lon="6.357070000">
        <ele>496.00000</ele>
        <time>2010-01-01T01:27:08Z</time>
      </trkpt>
      <trkpt lat="50.53608000" lon="6.357200000">
        <ele>492.00000</ele>
        <time>2010-01-01T01:27:16Z</time>
      </trkpt>
      <trkpt lat="50.53650000" lon="6.357380000">
        <ele>488.00000</ele>
        <time>2010-01-01T01:27:34Z</time>
      </trkpt>
      <trkpt lat="50.53727000" lon="6.357630000">
        <ele>482.00000</ele>
        <time>2010-01-01T01:28:05Z</time>
      </trkpt>
      <trkpt lat="50.53777000" lon="6.357910000">
        <ele>486.00000</ele>
        <time>2010-01-01T01:28:27Z</time>
      </trkpt>
      <trkpt lat="50.53801000" lon="6.358080000">
        <ele>482.00000</ele>
        <time>2010-01-01T01:28:37Z</time>
      </trkpt>
      <trkpt lat="50.53844000" lon="6.358240000">
        <ele>476.00000</ele>
        <time>2010-01-01T01:28:55Z</time>
      </trkpt>
      <trkpt lat="50.53872000" lon="6.358300000">
        <ele>475.00000</ele>
        <time>2010-01-01T01:29:06Z</time>
      </trkpt>
      <trkpt lat="50.53921000" lon="6.358260000">
        <ele>476.00000</ele>
        <time>2010-01-01T01:29:26Z</time>
      </trkpt>
      <trkpt lat="50.53960000" lon="6.358070000">
        <ele>474.00000</ele>
        <time>2010-01-01T01:29:42Z</time>
      </trkpt>
      <trkpt lat="50.53996000" lon="6.357800000">
        <ele>462.00000</ele>
        <time>2010-01-01T01:29:58Z</time>
      </trkpt>
      <trkpt lat="50.54053000" lon="6.357690000">
        <ele>464.00000</ele>
        <time>2010-01-01T01:30:21Z</time>
      </trkpt>
      <trkpt lat="50.54085000" lon="6.357670000">
        <ele>463.00000</ele>
        <time>2010-01-01T01:30:34Z</time>
      </trkpt>
      <trkpt lat="50.54109000" lon="6.357710000">
        <ele>461.00000</ele>
        <time>2010-01-01T01:30:44Z</time>
      </trkpt>
      <trkpt lat="50.54132000" lon="6.357870000">
        <ele>455.00000</ele>
        <time>2010-01-01T01:30:54Z</time>
      </trkpt>
      <trkpt lat="50.54139000" lon="6.358310000">
        <ele>460.00000</ele>
        <time>2010-01-01T01:31:05Z</time>
      </trkpt>
      <trkpt lat="50.54132000" lon="6.357870000">
        <ele>455.00000</ele>
        <time>2010-01-01T01:31:17Z</time>
      </trkpt>
      <trkpt lat="50.54109000" lon="6.357710000">
        <ele>461.00000</ele>
        <time>2010-01-01T01:31:27Z</time>
      </trkpt>
      <trkpt lat="50.54085000" lon="6.357670000">
        <ele>463.00000</ele>
        <time>2010-01-01T01:31:36Z</time>
      </trkpt>
      <trkpt lat="50.54053000" lon="6.357690000">
        <ele>464.00000</ele>
        <time>2010-01-01T01:31:49Z</time>
      </trkpt>
      <trkpt lat="50.53996000" lon="6.357800000">
        <ele>462.00000</ele>
        <time>2010-01-01T01:32:12Z</time>
      </trkpt>
      <trkpt lat="50.53960000" lon="6.358070000">
        <ele>474.00000</ele>
        <time>2010-01-01T01:32:28Z</time>
      </trkpt>
      <trkpt lat="50.53921000" lon="6.358260000">
        <ele>476.00000</ele>
        <time>2010-01-01T01:32:45Z</time>
      </trkpt>
      <trkpt lat="50.53872000" lon="6.358300000">
        <ele>475.00000</ele>
        <time>2010-01-01T01:33:04Z</time>
      </trkpt>
      <trkpt lat="50.53844000" lon="6.358240000">
        <ele>476.00000</ele>
        <time>2010-01-01T01:33:15Z</time>
      </trkpt>
      <trkpt lat="50.53801000" lon="6.358080000">
        <ele>482.00000</ele>
        <time>2010-01-01T01:33:33Z</time>
      </trkpt>
      <trkpt lat="50.53777000" lon="6.357910000">
        <ele>486.00000</ele>
        <time>2010-01-01T01:33:44Z</time>
      </trkpt>
      <trkpt lat="50.53727000" lon="6.357630000">
        <ele>482.00000</ele>
        <time>2010-01-01T01:34:05Z</time>
      </trkpt>
      <trkpt lat="50.53650000" lon="6.357380000">
        <ele>488.00000</ele>
        <time>2010-01-01T01:34:36Z</time>
      </trkpt>
      <trkpt lat="50.53608000" lon="6.357200000">
        <ele>492.00000</ele>
        <time>2010-01-01T01:34:54Z</time>
      </trkpt>
      <trkpt lat="50.53589000" lon="6.357070000">
        <ele>496.00000</ele>
        <time>2010-01-01T01:35:02Z</time>
      </trkpt>
      <trkpt lat="50.53491000" lon="6.356220000">
        <ele>498.00000</ele>
        <time>2010-01-01T01:35:47Z</time>
      </trkpt>
      <trkpt lat="50.53398000" lon="6.355320000">
        <ele>501.00000</ele>
        <time>2010-01-01T01:36:31Z</time>
      </trkpt>
      <trkpt lat="50.53355000" lon="6.355020000">
        <ele>499.00000</ele>
        <time>2010-01-01T01:36:49Z</time>
      </trkpt>
      <trkpt lat="50.53332000" lon="6.354970000">
        <ele>499.00000</ele>
        <time>2010-01-01T01:36:59Z</time>
      </trkpt>
      <trkpt lat="50.53308000" lon="6.354940000">
        <ele>499.00000</ele>
        <time>2010-01-01T01:37:08Z</time>
      </trkpt>
      <trkpt lat="50.53288000" lon="6.355020000">
        <ele>499.00000</ele>
        <time>2010-01-01T01:37:17Z</time>
      </trkpt>
      <trkpt lat="50.53259000" lon="6.355180000">
        <ele>501.00000</ele>
        <time>2010-01-01T01:37:29Z</time>
      </trkpt>
      <trkpt lat="50.53238000" lon="6.355180000">
        <ele>499.00000</ele>
        <time>2010-01-01T01:37:37Z</time>
      </trkpt>
      <trkpt lat="50.53191000" lon="6.355590000">
        <ele>506.00000</ele>
        <time>2010-01-01T01:37:59Z</time>
      </trkpt>
      <trkpt lat="50.53109000" lon="6.355940000">
        <ele>509.00000</ele>
        <time>2010-01-01T01:38:33Z</time>
      </trkpt>
      <trkpt lat="50.53007000" lon="6.356090000">
        <ele>514.00000</ele>
        <time>2010-01-01T01:39:14Z</time>
      </trkpt>
      <trkpt lat="50.52996000" lon="6.355850000">
        <ele>514.00000</ele>
        <time>2010-01-01T01:39:21Z</time>
      </trkpt>
      <trkpt lat="50.53015000" lon="6.355630000">
        <ele>511.00000</ele>
        <time>2010-01-01T01:39:31Z</time>
      </trkpt>
      <trkpt lat="50.53019000" lon="6.355500000">
        <ele>511.00000</ele>
        <time>2010-01-01T01:39:35Z</time>
      </trkpt>
      <trkpt lat="50.53020000" lon="6.355410000">
        <ele>512.00000</ele>
        <time>2010-01-01T01:39:37Z</time>
      </trkpt>
      <trkpt lat="50.53004000" lon="6.355040000">
        <ele>517.00000</ele>
        <time>2010-01-01T01:39:48Z</time>
      </trkpt>
      <trkpt lat="50.52995000" lon="6.354780000">
        <ele>519.00000</ele>
        <time>2010-01-01T01:39:56Z</time>
      </trkpt>
      <trkpt lat="50.52982000" lon="6.354300000">
        <ele>524.00000</ele>
        <time>2010-01-01T01:40:09Z</time>
      </trkpt>
      <trkpt lat="50.52874000" lon="6.352830000">
        <ele>532.00000</ele>
        <time>2010-01-01T01:41:06Z</time>
      </trkpt>
      <trkpt lat="50.52795000" lon="6.351830000">
        <ele>537.00000</ele>
        <time>2010-01-01T01:41:47Z</time>
      </trkpt>
      <trkpt lat="50.52726000" lon="6.351420000">
        <ele>532.00000</ele>
        <time>2010-01-01T01:42:16Z</time>
      </trkpt>
      <trkpt lat="50.52623000" lon="6.349890000">
        <ele>537.00000</ele>
        <time>2010-01-01T01:43:13Z</time>
      </trkpt>
      <trkpt lat="50.52553000" lon="6.348200000">
        <ele>540.00000</ele>
        <time>2010-01-01T01:44:04Z</time>
      </trkpt>
      <trkpt lat="50.52518000" lon="6.347250000">
        <ele>538.00000</ele>
        <time>2010-01-01T01:44:32Z</time>
      </trkpt>
      <trkpt lat="50.52477000" lon="6.346370000">
        <ele>538.00000</ele>
        <time>2010-01-01T01:45:00Z</time>
      </trkpt>
      <trkpt lat="50.52470000" lon="6.346170000">
        <ele>538.00000</ele>
        <time>2010-01-01T01:45:06Z</time>
      </trkpt>
      <trkpt lat="50.52470000" lon="6.346160000">
        <ele>538.00000</ele>
        <time>2010-01-01T01:45:06Z</time>
      </trkpt>
      <trkpt lat="50.52459000" lon="6.345930000">
        <ele>539.00000</ele>
        <time>2010-01-01T01:45:13Z</time>
      </trkpt>
      <trkpt lat="50.52455000" lon="6.345770000">
        <ele>540.00000</ele>
        <time>2010-01-01T01:45:18Z</time>
      </trkpt>
      <trkpt lat="50.52456000" lon="6.345720000">
        <ele>540.00000</ele>
        <time>2010-01-01T01:45:19Z</time>
      </trkpt>
      <trkpt lat="50.52461000" lon="6.345710000">
        <ele>542.00000</ele>
        <time>2010-01-01T01:45:21Z</time>
      </trkpt>
      <trkpt lat="50.52474000" lon="6.345610000">
        <ele>546.00000</ele>
        <time>2010-01-01T01:45:27Z</time>
      </trkpt>
      <trkpt lat="50.52493000" lon="6.345240000">
        <ele>553.00000</ele>
        <time>2010-01-01T01:45:39Z</time>
      </trkpt>
      <trkpt lat="50.52532000" lon="6.344190000">
        <ele>563.00000</ele>
        <time>2010-01-01T01:46:10Z</time>
      </trkpt>
      <trkpt lat="50.52550000" lon="6.343370000">
        <ele>569.00000</ele>
        <time>2010-01-01T01:46:32Z</time>
      </trkpt>
      <trkpt lat="50.52552000" lon="6.343010000">
        <ele>571.00000</ele>
        <time>2010-01-01T01:46:41Z</time>
      </trkpt>
      <trkpt lat="50.52532000" lon="6.341800000">
        <ele>577.00000</ele>
        <time>2010-01-01T01:47:13Z</time>
      </trkpt>
      <trkpt lat="50.52531000" lon="6.341610000">
        <ele>580.00000</ele>
        <time>2010-01-01T01:47:18Z</time>
      </trkpt>
      <trkpt lat="50.52538000" lon="6.341380000">
        <ele>584.00000</ele>
        <time>2010-01-01T01:47:24Z</time>
      </trkpt>
      <trkpt lat="50.52632000" lon="6.339640000">
        <ele>608.00000</ele>
        <time>2010-01-01T01:48:23Z</time>
      </trkpt>
      <trkpt lat="50.52657000" lon="6.338920000">
        <ele>612.00000</ele>
        <time>2010-01-01T01:48:43Z</time>
      </trkpt>
      <trkpt lat="50.52692000" lon="6.338090000">
        <ele>609.00000</ele>
        <time>2010-01-01T01:49:09Z</time>
      </trkpt>
      <trkpt lat="50.52790000" lon="6.335240000">
        <ele>590.00000</ele>
        <time>2010-01-01T01:50:31Z</time>
      </trkpt>
      <trkpt lat="50.52846000" lon="6.333790000">
        <ele>573.00000</ele>
        <time>2010-01-01T01:51:14Z</time>
      </trkpt>
      <trkpt lat="50.52849000" lon="6.333680000">
        <ele>571.00000</ele>
        <time>2010-01-01T01:51:17Z</time>
      </trkpt>
      <trkpt lat="50.52850000" lon="6.333400000">
        <ele>569.00000</ele>
        <time>2010-01-01T01:51:25Z</time>
      </trkpt>
      <trkpt lat="50.52843000" lon="6.333020000">
        <ele>570.00000</ele>
        <time>2010-01-01T01:51:35Z</time>
      </trkpt>
      <trkpt lat="50.52844000" lon="6.332830000">
        <ele>569.00000</ele>
        <time>2010-01-01T01:51:40Z</time>
      </trkpt>
      <trkpt lat="50.52860000" lon="6.332440000">
        <ele>568.00000</ele>
        <time>2010-01-01T01:51:51Z</time>
      </trkpt>
      <trkpt lat="50.52944000" lon="6.330110000">
        <ele>592.00000</ele>
        <time>2010-01-01T01:53:00Z</time>
      </trkpt>
      <trkpt lat="50.53045000" lon="6.327100000">
        <ele>608.00000</ele>
        <time>2010-01-01T01:54:26Z</time>
      </trkpt>
      <trkpt lat="50.53096000" lon="6.325700000">
        <ele>612.00000</ele>
        <time>2010-01-01T01:55:07Z</time>
      </trkpt>
      <trkpt lat="50.53123000" lon="6.324900000">
        <ele>611.00000</ele>
        <time>2010-01-01T01:55:30Z</time>
      </trkpt>
      <trkpt lat="50.53131000" lon="6.324550000">
        <ele>610.00000</ele>
        <time>2010-01-01T01:55:40Z</time>
      </trkpt>
      <trkpt lat="50.53134000" lon="6.324290000">
        <ele>609.00000</ele>
        <time>2010-01-01T01:55:46Z</time>
      </trkpt>
      <trkpt lat="50.53133000" lon="6.324040000">
        <ele>608.00000</ele>
        <time>2010-01-01T01:55:53Z</time>
      </trkpt>
      <trkpt lat="50.53133000" lon="6.324030000">
        <ele>608.00000</ele>
        <time>2010-01-01T01:55:53Z</time>
      </trkpt>
      <trkpt lat="50.53130000" lon="6.323470000">
        <ele>606.00000</ele>
        <time>2010-01-01T01:56:07Z</time>
      </trkpt>
      <trkpt lat="50.53130000" lon="6.322350000">
        <ele>604.00000</ele>
        <time>2010-01-01T01:56:36Z</time>
      </trkpt>
      <trkpt lat="50.53134000" lon="6.321460000">
        <ele>599.00000</ele>
        <time>2010-01-01T01:56:59Z</time>
      </trkpt>
      <trkpt lat="50.53129000" lon="6.321080000">
        <ele>600.00000</ele>
        <time>2010-01-01T01:57:08Z</time>
      </trkpt>
      <trkpt lat="50.53128000" lon="6.320680000">
        <ele>601.00000</ele>
        <time>2010-01-01T01:57:19Z</time>
      </trkpt>
      <trkpt lat="50.53129000" lon="6.320390000">
        <ele>603.00000</ele>
        <time>2010-01-01T01:57:26Z</time>
      </trkpt>
      <trkpt lat="50.53142000" lon="6.319500000">
        <ele>606.00000</ele>
        <time>2010-01-01T01:57:49Z</time>
      </trkpt>
      <trkpt lat="50.53147000" lon="6.319140000">
        <ele>608.00000</ele>
        <time>2010-01-01T01:57:59Z</time>
      </trkpt>
      <trkpt lat="50.53164000" lon="6.318430000">
        <ele>610.00000</ele>
        <time>2010-01-01T01:58:18Z</time>
      </trkpt>
      <trkpt lat="50.53199000" lon="6.316230000">
        <ele>609.00000</ele>
        <time>2010-01-01T01:59:16Z</time>
      </trkpt>
      <trkpt lat="50.53203000" lon="6.315470000">
        <ele>610.00000</ele>
        <time>2010-01-01T01:59:35Z</time>
      </trkpt>
      <trkpt lat="50.53231000" lon="6.312770000">
        <ele>606.00000</ele>
        <time>2010-01-01T02:00:45Z</time>
      </trkpt>
      <trkpt lat="50.53246000" lon="6.311660000">
        <ele>603.00000</ele>
        <time>2010-01-01T02:01:14Z</time>
      </trkpt>
      <trkpt lat="50.53250000" lon="6.311100000">
        <ele>599.00000</ele>
        <time>2010-01-01T02:01:28Z</time>
      </trkpt>
      <trkpt lat="50.53251000" lon="6.310450000">
        <ele>598.00000</ele>
        <time>2010-01-01T02:01:44Z</time>
      </trkpt>
      <trkpt lat="50.53240000" lon="6.308540000">
        <ele>592.00000</ele>
        <time>2010-01-01T02:02:33Z</time>
      </trkpt>
      <trkpt lat="50.53238000" lon="6.307530000">
        <ele>586.00000</ele>
        <time>2010-01-01T02:02:59Z</time>
      </trkpt>
      <trkpt lat="50.53241000" lon="6.306670000">
        <ele>587.00000</ele>
        <time>2010-01-01T02:03:21Z</time>
      </trkpt>
      <trkpt lat="50.53264000" lon="6.302970000">
        <ele>594.00000</ele>
        <time>2010-01-01T02:04:55Z</time>
      </trkpt>
      <trkpt lat="50.53280000" lon="6.301320000">
        <ele>597.00000</ele>
        <time>2010-01-01T02:05:38Z</time>
      </trkpt>
      <trkpt lat="50.53281000" lon="6.295170000">
        <ele>580.00000</ele>
        <time>2010-01-01T02:08:14Z</time>
      </trkpt>
      <trkpt lat="50.53280000" lon="6.294100000">
        <ele>570.00000</ele>
        <time>2010-01-01T02:08:42Z</time>
      </trkpt>
      <trkpt lat="50.53273000" lon="6.292960000">
        <ele>567.00000</ele>
        <time>2010-01-01T02:09:11Z</time>
      </trkpt>
      <trkpt lat="50.53271000" lon="6.292290000">
        <ele>561.00000</ele>
        <time>2010-01-01T02:09:28Z</time>
      </trkpt>
      <trkpt lat="50.53272000" lon="6.292190000">
        <ele>560.00000</ele>
        <time>2010-01-01T02:09:30Z</time>
      </trkpt>
      <trkpt lat="50.53277000" lon="6.292100000">
        <ele>559.00000</ele>
        <time>2010-01-01T02:09:33Z</time>
      </trkpt>
      <trkpt lat="50.53284000" lon="6.292040000">
        <ele>557.00000</ele>
        <time>2010-01-01T02:09:37Z</time>
      </trkpt>
      <trkpt lat="50.53288000" lon="6.291940000">
        <ele>556.00000</ele>
        <time>2010-01-01T02:09:40Z</time>
      </trkpt>
      <trkpt lat="50.53289000" lon="6.291820000">
        <ele>554.00000</ele>
        <time>2010-01-01T02:09:43Z</time>
      </trkpt>
      <trkpt lat="50.53287000" lon="6.291710000">
        <ele>553.00000</ele>
        <time>2010-01-01T02:09:46Z</time>
      </trkpt>
      <trkpt lat="50.53282000" lon="6.291580000">
        <ele>550.00000</ele>
        <time>2010-01-01T02:09:49Z</time>
      </trkpt>
      <trkpt lat="50.53276000" lon="6.291490000">
        <ele>549.00000</ele>
        <time>2010-01-01T02:09:53Z</time>
      </trkpt>
      <trkpt lat="50.53218000" lon="6.291020000">
        <ele>539.00000</ele>
        <time>2010-01-01T02:10:19Z</time>
      </trkpt>
      <trkpt lat="50.53211000" lon="6.290900000">
        <ele>538.00000</ele>
        <time>2010-01-01T02:10:23Z</time>
      </trkpt>
      <trkpt lat="50.53210000" lon="6.290810000">
        <ele>538.00000</ele>
        <time>2010-01-01T02:10:25Z</time>
      </trkpt>
      <trkpt lat="50.53213000" lon="6.290630000">
        <ele>538.00000</ele>
        <time>2010-01-01T02:10:30Z</time>
      </trkpt>
      <trkpt lat="50.53219000" lon="6.290480000">
        <ele>538.00000</ele>
        <time>2010-01-01T02:10:35Z</time>
      </trkpt>
      <trkpt lat="50.53271000" lon="6.289570000">
        <ele>542.00000</ele>
        <time>2010-01-01T02:11:06Z</time>
      </trkpt>
      <trkpt lat="50.53304000" lon="6.288560000">
        <ele>541.00000</ele>
        <time>2010-01-01T02:11:35Z</time>
      </trkpt>
      <trkpt lat="50.53318000" lon="6.288280000">
        <ele>542.00000</ele>
        <time>2010-01-01T02:11:44Z</time>
      </trkpt>
      <trkpt lat="50.53353000" lon="6.287830000">
        <ele>542.00000</ele>
        <time>2010-01-01T02:12:02Z</time>
      </trkpt>
      <trkpt lat="50.53402000" lon="6.287420000">
        <ele>541.00000</ele>
        <time>2010-01-01T02:12:24Z</time>
      </trkpt>
      <trkpt lat="50.53457000" lon="6.287100000">
        <ele>540.00000</ele>
        <time>2010-01-01T02:12:48Z</time>
      </trkpt>
      <trkpt lat="50.53523000" lon="6.286850000">
        <ele>538.00000</ele>
        <time>2010-01-01T02:13:15Z</time>
      </trkpt>
      <trkpt lat="50.53556000" lon="6.286760000">
        <ele>534.00000</ele>
        <time>2010-01-01T02:13:28Z</time>
      </trkpt>
      <trkpt lat="50.53573000" lon="6.286760000">
        <ele>534.00000</ele>
        <time>2010-01-01T02:13:35Z</time>
      </trkpt>
      <trkpt lat="50.53611000" lon="6.286900000">
        <ele>535.00000</ele>
        <time>2010-01-01T02:13:51Z</time>
      </trkpt>
      <trkpt lat="50.53624000" lon="6.286910000">
        <ele>535.00000</ele>
        <time>2010-01-01T02:13:56Z</time>
      </trkpt>
      <trkpt lat="50.53686000" lon="6.286820000">
        <ele>541.00000</ele>
        <time>2010-01-01T02:14:21Z</time>
      </trkpt>
      <trkpt lat="50.53699000" lon="6.286760000">
        <ele>542.00000</ele>
        <time>2010-01-01T02:14:26Z</time>
      </trkpt>
      <trkpt lat="50.53766000" lon="6.286190000">
        <ele>551.00000</ele>
        <time>2010-01-01T02:14:57Z</time>
      </trkpt>
      <trkpt lat="50.53863000" lon="6.285500000">
        <ele>553.00000</ele>
        <time>2010-01-01T02:15:39Z</time>
      </trkpt>
      <trkpt lat="50.53894000" lon="6.285200000">
        <ele>553.00000</ele>
        <time>2010-01-01T02:15:54Z</time>
      </trkpt>
      <trkpt lat="50.53927000" lon="6.284840000">
        <ele>553.00000</ele>
        <time>2010-01-01T02:16:10Z</time>
      </trkpt>
      <trkpt lat="50.53915000" lon="6.284970000">
        <ele>553.00000</ele>
        <time>2010-01-01T02:16:16Z</time>
      </trkpt>
      <trkpt lat="50.53968000" lon="6.285230000">
        <ele>553.00000</ele>
        <time>2010-01-01T02:16:38Z</time>
      </trkpt>
      <trkpt lat="50.54136000" lon="6.285970000">
        <ele>552.00000</ele>
        <time>2010-01-01T02:17:48Z</time>
      </trkpt>
      <trkpt lat="50.54172000" lon="6.286040000">
        <ele>551.00000</ele>
        <time>2010-01-01T02:18:02Z</time>
      </trkpt>
      <trkpt lat="50.54166000" lon="6.286150000">
        <ele>550.00000</ele>
        <time>2010-01-01T02:18:06Z</time>
      </trkpt>
      <trkpt lat="50.54272000" lon="6.287430000">
        <ele>550.00000</ele>
        <time>2010-01-01T02:18:59Z</time>
      </trkpt>
      <trkpt lat="50.54296000" lon="6.287650000">
        <ele>551.00000</ele>
        <time>2010-01-01T02:19:11Z</time>
      </trkpt>
      <trkpt lat="50.54379000" lon="6.288320000">
        <ele>551.00000</ele>
        <time>2010-01-01T02:19:48Z</time>
      </trkpt>
      <trkpt lat="50.54404000" lon="6.288490000">
        <ele>550.00000</ele>
        <time>2010-01-01T02:19:59Z</time>
      </trkpt>
      <trkpt lat="50.54404000" lon="6.288480000">
        <ele>551.00000</ele>
        <time>2010-01-01T02:19:59Z</time>
      </trkpt>
      <trkpt lat="50.54435000" lon="6.288680000">
        <ele>551.00000</ele>
        <time>2010-01-01T02:20:12Z</time>
      </trkpt>
      <trkpt lat="50.54596000" lon="6.289370000">
        <ele>551.00000</ele>
        <time>2010-01-01T02:21:19Z</time>
      </trkpt>
      <trkpt lat="50.54595000" lon="6.289370000">
        <ele>551.00000</ele>
        <time>2010-01-01T02:21:20Z</time>
      </trkpt>
      <trkpt lat="50.54600000" lon="6.289390000">
        <ele>551.00000</ele>
        <time>2010-01-01T02:21:22Z</time>
      </trkpt>
      <trkpt lat="50.54618000" lon="6.288990000">
        <ele>549.00000</ele>
        <time>2010-01-01T02:21:34Z</time>
      </trkpt>
      <trkpt lat="50.54626000" lon="6.288860000">
        <ele>550.00000</ele>
        <time>2010-01-01T02:21:39Z</time>
      </trkpt>
      <trkpt lat="50.54657000" lon="6.288520000">
        <ele>551.00000</ele>
        <time>2010-01-01T02:21:54Z</time>
      </trkpt>
      <trkpt lat="50.54693000" lon="6.287970000">
        <ele>551.00000</ele>
        <time>2010-01-01T02:22:14Z</time>
      </trkpt>
      <trkpt lat="50.54724000" lon="6.287380000">
        <ele>550.00000</ele>
        <time>2010-01-01T02:22:33Z</time>
      </trkpt>
      <trkpt lat="50.54779000" lon="6.286240000">
        <ele>550.00000</ele>
        <time>2010-01-01T02:23:10Z</time>
      </trkpt>
      <trkpt lat="50.54796000" lon="6.285880000">
        <ele>550.00000</ele>
        <time>2010-01-01T02:23:21Z</time>
      </trkpt>
      <trkpt lat="50.54810000" lon="6.285360000">
        <ele>550.00000</ele>
        <time>2010-01-01T02:23:36Z</time>
      </trkpt>
      <trkpt lat="50.54819000" lon="6.285280000">
        <ele>550.00000</ele>
        <time>2010-01-01T02:23:40Z</time>
      </trkpt>
      <trkpt lat="50.54836000" lon="6.285100000">
        <ele>550.00000</ele>
        <time>2010-01-01T02:23:48Z</time>
      </trkpt>
      <trkpt lat="50.54865000" lon="6.284540000">
        <ele>552.00000</ele>
        <time>2010-01-01T02:24:06Z</time>
      </trkpt>
      <trkpt lat="50.54874000" lon="6.284430000">
        <ele>552.00000</ele>
        <time>2010-01-01T02:24:11Z</time>
      </trkpt>
      <trkpt lat="50.54881000" lon="6.284390000">
        <ele>552.00000</ele>
        <time>2010-01-01T02:24:14Z</time>
      </trkpt>
      <trkpt lat="50.54888000" lon="6.284390000">
        <ele>552.00000</ele>
        <time>2010-01-01T02:24:17Z</time>
      </trkpt>
      <trkpt lat="50.54895000" lon="6.284400000">
        <ele>552.00000</ele>
        <time>2010-01-01T02:24:20Z</time>
      </trkpt>
      <trkpt lat="50.54904000" lon="6.284470000">
        <ele>553.00000</ele>
        <time>2010-01-01T02:24:24Z</time>
      </trkpt>
    </trkseg>
  </trk>
</gpx>

